sensor_id;sensor_type;location;lat;lon;timestamp;P1;durP1;ratioP1;P2;durP2;ratioP2
40675;SDS011;26359;48.750;9.314;2023-03-01T00:01:05;24.90;;;17.17;;
40675;SDS011;26359;48.750;9.314;2023-03-01T00:03:33;23.63;;;16.73;;
40675;SDS011;26359;48.750;9.314;2023-03-01T00:05:59;24.65;;;16.55;;
40675;SDS011;26359;48.750;9.314;2023-03-01T00:08:25;27.17;;;17.38;;
40675;SDS011;26359;48.750;9.314;2023-03-01T00:11:08;25.10;;;16.70;;
40675;SDS011;26359;48.750;9.314;2023-03-01T00:13:44;25.60;;;16.75;;
40675;SDS011;26359;48.750;9.314;2023-03-01T00:16:23;26.98;;;17.33;;
40675;SDS011;26359;48.750;9.314;2023-03-01T00:18:54;26.75;;;17.98;;
40675;SDS011;26359;48.750;9.314;2023-03-01T00:21:20;27.60;;;18.38;;
40675;SDS011;26359;48.750;9.314;2023-03-01T00:23:49;24.15;;;16.88;;
40675;SDS011;26359;48.750;9.314;2023-03-01T00:26:16;23.85;;;16.52;;
40675;SDS011;26359;48.750;9.314;2023-03-01T00:28:42;24.55;;;17.50;;
40675;SDS011;26359;48.750;9.314;2023-03-01T00:31:10;26.42;;;17.70;;
40675;SDS011;26359;48.750;9.314;2023-03-01T00:33:38;25.92;;;17.67;;
40675;SDS011;26359;48.750;9.314;2023-03-01T00:36:04;27.05;;;17.08;;
40675;SDS011;26359;48.750;9.314;2023-03-01T00:38:30;26.63;;;17.90;;
40675;SDS011;26359;48.750;9.314;2023-03-01T00:41:02;25.25;;;18.40;;
40675;SDS011;26359;48.750;9.314;2023-03-01T00:43:30;25.88;;;17.90;;
40675;SDS011;26359;48.750;9.314;2023-03-01T00:45:56;25.20;;;16.75;;
40675;SDS011;26359;48.750;9.314;2023-03-01T00:48:25;25.88;;;17.25;;
40675;SDS011;26359;48.750;9.314;2023-03-01T00:50:51;25.80;;;16.52;;
40675;SDS011;26359;48.750;9.314;2023-03-01T00:53:16;27.73;;;17.58;;
40675;SDS011;26359;48.750;9.314;2023-03-01T00:55:42;27.48;;;17.90;;
40675;SDS011;26359;48.750;9.314;2023-03-01T00:58:07;26.70;;;17.70;;
40675;SDS011;26359;48.750;9.314;2023-03-01T01:00:32;26.70;;;19.67;;
40675;SDS011;26359;48.750;9.314;2023-03-01T01:02:58;29.27;;;19.23;;
40675;SDS011;26359;48.750;9.314;2023-03-01T01:05:24;26.23;;;18.90;;
40675;SDS011;26359;48.750;9.314;2023-03-01T01:07:49;25.65;;;17.63;;
40675;SDS011;26359;48.750;9.314;2023-03-01T01:10:15;25.88;;;18.17;;
40675;SDS011;26359;48.750;9.314;2023-03-01T01:12:42;25.85;;;17.05;;
40675;SDS011;26359;48.750;9.314;2023-03-01T01:15:10;29.73;;;18.92;;
40675;SDS011;26359;48.750;9.314;2023-03-01T01:17:39;25.48;;;16.88;;
40675;SDS011;26359;48.750;9.314;2023-03-01T01:20:04;26.55;;;18.10;;
40675;SDS011;26359;48.750;9.314;2023-03-01T01:22:30;29.77;;;19.42;;
40675;SDS011;26359;48.750;9.314;2023-03-01T01:24:56;27.95;;;18.77;;
40675;SDS011;26359;48.750;9.314;2023-03-01T01:27:21;27.05;;;18.25;;
40675;SDS011;26359;48.750;9.314;2023-03-01T01:29:47;25.92;;;17.67;;
40675;SDS011;26359;48.750;9.314;2023-03-01T01:32:12;27.50;;;17.73;;
40675;SDS011;26359;48.750;9.314;2023-03-01T01:34:39;28.23;;;18.83;;
40675;SDS011;26359;48.750;9.314;2023-03-01T01:37:04;26.75;;;19.08;;
40675;SDS011;26359;48.750;9.314;2023-03-01T01:39:32;28.13;;;19.13;;
40675;SDS011;26359;48.750;9.314;2023-03-01T01:41:59;25.52;;;18.02;;
40675;SDS011;26359;48.750;9.314;2023-03-01T01:44:27;28.73;;;18.23;;
40675;SDS011;26359;48.750;9.314;2023-03-01T01:46:55;26.02;;;17.45;;
40675;SDS011;26359;48.750;9.314;2023-03-01T01:49:34;29.63;;;19.15;;
40675;SDS011;26359;48.750;9.314;2023-03-01T01:54:51;24.83;;;17.30;;
40675;SDS011;26359;48.750;9.314;2023-03-01T01:57:25;27.58;;;18.20;;
40675;SDS011;26359;48.750;9.314;2023-03-01T01:59:55;30.63;;;18.17;;
40675;SDS011;26359;48.750;9.314;2023-03-01T02:02:24;26.38;;;18.00;;
40675;SDS011;26359;48.750;9.314;2023-03-01T02:04:51;30.33;;;18.90;;
40675;SDS011;26359;48.750;9.314;2023-03-01T02:07:21;26.63;;;18.65;;
40675;SDS011;26359;48.750;9.314;2023-03-01T02:09:49;30.00;;;20.73;;
40675;SDS011;26359;48.750;9.314;2023-03-01T02:12:17;29.85;;;19.75;;
40675;SDS011;26359;48.750;9.314;2023-03-01T02:14:45;32.03;;;20.00;;
40675;SDS011;26359;48.750;9.314;2023-03-01T02:17:11;28.92;;;20.88;;
40675;SDS011;26359;48.750;9.314;2023-03-01T02:19:46;26.90;;;19.35;;
40675;SDS011;26359;48.750;9.314;2023-03-01T02:22:34;28.15;;;18.40;;
40675;SDS011;26359;48.750;9.314;2023-03-01T02:27:52;32.05;;;20.42;;
40675;SDS011;26359;48.750;9.314;2023-03-01T02:30:21;30.60;;;19.42;;
40675;SDS011;26359;48.750;9.314;2023-03-01T02:32:48;30.42;;;20.38;;
40675;SDS011;26359;48.750;9.314;2023-03-01T02:35:16;31.95;;;20.02;;
40675;SDS011;26359;48.750;9.314;2023-03-01T02:37:44;29.35;;;21.50;;
40675;SDS011;26359;48.750;9.314;2023-03-01T02:40:11;35.08;;;21.23;;
40675;SDS011;26359;48.750;9.314;2023-03-01T02:42:55;33.00;;;22.40;;
40675;SDS011;26359;48.750;9.314;2023-03-01T02:45:22;29.55;;;20.55;;
40675;SDS011;26359;48.750;9.314;2023-03-01T02:47:48;30.60;;;21.85;;
40675;SDS011;26359;48.750;9.314;2023-03-01T02:52:56;30.90;;;20.77;;
40675;SDS011;26359;48.750;9.314;2023-03-01T02:55:30;30.23;;;21.05;;
40675;SDS011;26359;48.750;9.314;2023-03-01T02:57:55;29.08;;;20.80;;
40675;SDS011;26359;48.750;9.314;2023-03-01T03:00:26;28.75;;;21.15;;
40675;SDS011;26359;48.750;9.314;2023-03-01T03:02:58;37.70;;;22.92;;
40675;SDS011;26359;48.750;9.314;2023-03-01T03:05:24;34.95;;;22.30;;
40675;SDS011;26359;48.750;9.314;2023-03-01T03:07:52;33.25;;;23.08;;
40675;SDS011;26359;48.750;9.314;2023-03-01T03:10:19;29.95;;;22.58;;
40675;SDS011;26359;48.750;9.314;2023-03-01T03:12:49;30.98;;;22.27;;
40675;SDS011;26359;48.750;9.314;2023-03-01T03:15:20;34.42;;;23.55;;
40675;SDS011;26359;48.750;9.314;2023-03-01T03:17:47;31.95;;;22.38;;
40675;SDS011;26359;48.750;9.314;2023-03-01T03:20:14;30.55;;;20.35;;
40675;SDS011;26359;48.750;9.314;2023-03-01T03:22:43;30.38;;;21.65;;
40675;SDS011;26359;48.750;9.314;2023-03-01T03:25:10;33.08;;;21.40;;
40675;SDS011;26359;48.750;9.314;2023-03-01T03:27:40;29.10;;;20.88;;
40675;SDS011;26359;48.750;9.314;2023-03-01T03:30:07;30.05;;;21.25;;
40675;SDS011;26359;48.750;9.314;2023-03-01T03:32:37;30.13;;;21.00;;
40675;SDS011;26359;48.750;9.314;2023-03-01T03:35:03;31.75;;;20.42;;
40675;SDS011;26359;48.750;9.314;2023-03-01T03:37:40;33.72;;;20.40;;
40675;SDS011;26359;48.750;9.314;2023-03-01T03:40:25;35.30;;;21.67;;
40675;SDS011;26359;48.750;9.314;2023-03-01T03:42:53;31.35;;;21.65;;
40675;SDS011;26359;48.750;9.314;2023-03-01T03:45:19;34.15;;;22.58;;
40675;SDS011;26359;48.750;9.314;2023-03-01T03:47:45;31.08;;;21.67;;
40675;SDS011;26359;48.750;9.314;2023-03-01T03:50:11;30.45;;;20.92;;
40675;SDS011;26359;48.750;9.314;2023-03-01T03:52:38;33.75;;;20.92;;
40675;SDS011;26359;48.750;9.314;2023-03-01T03:55:04;31.10;;;21.73;;
40675;SDS011;26359;48.750;9.314;2023-03-01T03:57:34;34.30;;;21.23;;
40675;SDS011;26359;48.750;9.314;2023-03-01T04:00:00;32.47;;;21.15;;
40675;SDS011;26359;48.750;9.314;2023-03-01T04:02:25;34.05;;;21.08;;
40675;SDS011;26359;48.750;9.314;2023-03-01T04:04:51;31.08;;;20.10;;
40675;SDS011;26359;48.750;9.314;2023-03-01T04:07:17;32.45;;;21.42;;
40675;SDS011;26359;48.750;9.314;2023-03-01T04:09:42;32.35;;;21.45;;
40675;SDS011;26359;48.750;9.314;2023-03-01T04:12:08;30.95;;;21.60;;
40675;SDS011;26359;48.750;9.314;2023-03-01T04:14:34;32.08;;;20.38;;
40675;SDS011;26359;48.750;9.314;2023-03-01T04:17:00;36.08;;;22.63;;
40675;SDS011;26359;48.750;9.314;2023-03-01T04:19:26;33.15;;;21.40;;
40675;SDS011;26359;48.750;9.314;2023-03-01T04:21:51;29.73;;;21.30;;
40675;SDS011;26359;48.750;9.314;2023-03-01T04:24:17;30.75;;;21.13;;
40675;SDS011;26359;48.750;9.314;2023-03-01T04:26:43;34.40;;;22.67;;
40675;SDS011;26359;48.750;9.314;2023-03-01T04:29:08;31.00;;;21.30;;
40675;SDS011;26359;48.750;9.314;2023-03-01T04:31:34;33.72;;;21.77;;
40675;SDS011;26359;48.750;9.314;2023-03-01T04:34:00;31.05;;;21.38;;
40675;SDS011;26359;48.750;9.314;2023-03-01T04:36:26;34.25;;;22.08;;
40675;SDS011;26359;48.750;9.314;2023-03-01T04:38:53;36.13;;;22.98;;
40675;SDS011;26359;48.750;9.314;2023-03-01T04:41:20;30.75;;;21.13;;
40675;SDS011;26359;48.750;9.314;2023-03-01T04:43:47;31.42;;;21.52;;
40675;SDS011;26359;48.750;9.314;2023-03-01T04:46:15;32.22;;;22.33;;
40675;SDS011;26359;48.750;9.314;2023-03-01T04:48:43;34.85;;;21.63;;
40675;SDS011;26359;48.750;9.314;2023-03-01T04:51:10;36.63;;;21.45;;
40675;SDS011;26359;48.750;9.314;2023-03-01T04:53:38;32.00;;;21.38;;
40675;SDS011;26359;48.750;9.314;2023-03-01T04:56:04;34.17;;;21.60;;
40675;SDS011;26359;48.750;9.314;2023-03-01T04:58:30;33.40;;;21.80;;
40675;SDS011;26359;48.750;9.314;2023-03-01T05:00:55;35.35;;;22.33;;
40675;SDS011;26359;48.750;9.314;2023-03-01T05:03:21;34.35;;;21.95;;
40675;SDS011;26359;48.750;9.314;2023-03-01T05:05:48;36.83;;;22.48;;
40675;SDS011;26359;48.750;9.314;2023-03-01T05:08:15;32.78;;;21.63;;
40675;SDS011;26359;48.750;9.314;2023-03-01T05:10:52;33.58;;;22.42;;
40675;SDS011;26359;48.750;9.314;2023-03-01T05:13:19;33.88;;;22.92;;
40675;SDS011;26359;48.750;9.314;2023-03-01T05:15:46;32.70;;;22.52;;
40675;SDS011;26359;48.750;9.314;2023-03-01T05:18:14;36.38;;;23.50;;
40675;SDS011;26359;48.750;9.314;2023-03-01T05:20:39;32.15;;;23.05;;
40675;SDS011;26359;48.750;9.314;2023-03-01T05:23:05;33.58;;;22.05;;
40675;SDS011;26359;48.750;9.314;2023-03-01T05:25:31;33.15;;;22.05;;
40675;SDS011;26359;48.750;9.314;2023-03-01T05:27:58;32.40;;;21.27;;
40675;SDS011;26359;48.750;9.314;2023-03-01T05:30:29;33.90;;;22.02;;
40675;SDS011;26359;48.750;9.314;2023-03-01T05:32:58;31.60;;;21.60;;
40675;SDS011;26359;48.750;9.314;2023-03-01T05:35:24;36.38;;;23.13;;
40675;SDS011;26359;48.750;9.314;2023-03-01T05:37:51;35.38;;;24.38;;
40675;SDS011;26359;48.750;9.314;2023-03-01T05:40:20;33.50;;;22.08;;
40675;SDS011;26359;48.750;9.314;2023-03-01T05:42:49;35.28;;;22.50;;
40675;SDS011;26359;48.750;9.314;2023-03-01T05:45:18;35.13;;;23.08;;
40675;SDS011;26359;48.750;9.314;2023-03-01T05:47:44;32.30;;;24.30;;
40675;SDS011;26359;48.750;9.314;2023-03-01T05:50:12;36.53;;;25.52;;
40675;SDS011;26359;48.750;9.314;2023-03-01T05:52:43;34.90;;;23.92;;
40675;SDS011;26359;48.750;9.314;2023-03-01T05:55:09;32.95;;;23.23;;
40675;SDS011;26359;48.750;9.314;2023-03-01T05:57:34;35.70;;;23.70;;
40675;SDS011;26359;48.750;9.314;2023-03-01T06:00:00;34.17;;;24.17;;
40675;SDS011;26359;48.750;9.314;2023-03-01T06:02:26;34.38;;;23.85;;
40675;SDS011;26359;48.750;9.314;2023-03-01T06:04:52;37.95;;;23.35;;
40675;SDS011;26359;48.750;9.314;2023-03-01T06:07:17;34.53;;;22.75;;
40675;SDS011;26359;48.750;9.314;2023-03-01T06:09:43;35.58;;;21.80;;
40675;SDS011;26359;48.750;9.314;2023-03-01T06:12:09;33.80;;;21.88;;
40675;SDS011;26359;48.750;9.314;2023-03-01T06:14:34;36.65;;;23.88;;
40675;SDS011;26359;48.750;9.314;2023-03-01T06:17:00;34.08;;;23.10;;
40675;SDS011;26359;48.750;9.314;2023-03-01T06:19:25;33.22;;;24.23;;
40675;SDS011;26359;48.750;9.314;2023-03-01T06:21:51;31.92;;;22.77;;
40675;SDS011;26359;48.750;9.314;2023-03-01T06:24:16;32.20;;;21.70;;
40675;SDS011;26359;48.750;9.314;2023-03-01T06:26:42;34.22;;;22.10;;
40675;SDS011;26359;48.750;9.314;2023-03-01T06:29:07;34.38;;;23.90;;
40675;SDS011;26359;48.750;9.314;2023-03-01T06:31:33;35.25;;;22.88;;
40675;SDS011;26359;48.750;9.314;2023-03-01T06:33:59;36.95;;;23.85;;
40675;SDS011;26359;48.750;9.314;2023-03-01T06:36:24;31.50;;;21.70;;
40675;SDS011;26359;48.750;9.314;2023-03-01T06:38:50;38.03;;;22.50;;
40675;SDS011;26359;48.750;9.314;2023-03-01T06:41:15;34.65;;;22.50;;
40675;SDS011;26359;48.750;9.314;2023-03-01T06:43:41;36.58;;;23.73;;
40675;SDS011;26359;48.750;9.314;2023-03-01T06:46:06;38.35;;;23.95;;
40675;SDS011;26359;48.750;9.314;2023-03-01T06:48:32;40.25;;;25.40;;
40675;SDS011;26359;48.750;9.314;2023-03-01T06:50:59;35.67;;;24.90;;
40675;SDS011;26359;48.750;9.314;2023-03-01T06:53:28;35.28;;;24.20;;
40675;SDS011;26359;48.750;9.314;2023-03-01T06:55:57;35.10;;;25.23;;
40675;SDS011;26359;48.750;9.314;2023-03-01T06:58:24;35.15;;;23.30;;
40675;SDS011;26359;48.750;9.314;2023-03-01T07:00:50;38.05;;;23.90;;
40675;SDS011;26359;48.750;9.314;2023-03-01T07:03:16;39.67;;;22.75;;
40675;SDS011;26359;48.750;9.314;2023-03-01T07:05:42;35.13;;;21.90;;
40675;SDS011;26359;48.750;9.314;2023-03-01T07:08:09;35.17;;;22.02;;
40675;SDS011;26359;48.750;9.314;2023-03-01T07:10:34;32.55;;;21.73;;
40675;SDS011;26359;48.750;9.314;2023-03-01T07:13:00;37.03;;;22.13;;
40675;SDS011;26359;48.750;9.314;2023-03-01T07:15:26;35.17;;;23.42;;
40675;SDS011;26359;48.750;9.314;2023-03-01T07:17:52;38.60;;;24.65;;
40675;SDS011;26359;48.750;9.314;2023-03-01T07:20:18;35.78;;;23.48;;
40675;SDS011;26359;48.750;9.314;2023-03-01T07:22:50;36.22;;;24.33;;
40675;SDS011;26359;48.750;9.314;2023-03-01T07:25:19;35.95;;;22.92;;
40675;SDS011;26359;48.750;9.314;2023-03-01T07:27:49;36.42;;;22.65;;
40675;SDS011;26359;48.750;9.314;2023-03-01T07:30:17;35.05;;;22.90;;
40675;SDS011;26359;48.750;9.314;2023-03-01T07:32:44;36.92;;;22.35;;
40675;SDS011;26359;48.750;9.314;2023-03-01T07:35:10;32.13;;;22.00;;
40675;SDS011;26359;48.750;9.314;2023-03-01T07:37:36;36.97;;;22.88;;
40675;SDS011;26359;48.750;9.314;2023-03-01T07:40:02;34.90;;;23.48;;
40675;SDS011;26359;48.750;9.314;2023-03-01T07:42:27;34.05;;;23.80;;
40675;SDS011;26359;48.750;9.314;2023-03-01T07:44:53;36.38;;;23.35;;
40675;SDS011;26359;48.750;9.314;2023-03-01T07:47:18;36.20;;;22.42;;
40675;SDS011;26359;48.750;9.314;2023-03-01T07:49:44;37.38;;;23.73;;
40675;SDS011;26359;48.750;9.314;2023-03-01T07:52:10;35.08;;;23.63;;
40675;SDS011;26359;48.750;9.314;2023-03-01T07:54:37;35.58;;;23.50;;
40675;SDS011;26359;48.750;9.314;2023-03-01T07:57:03;34.33;;;24.20;;
40675;SDS011;26359;48.750;9.314;2023-03-01T07:59:28;39.15;;;24.75;;
40675;SDS011;26359;48.750;9.314;2023-03-01T08:01:57;42.72;;;24.92;;
40675;SDS011;26359;48.750;9.314;2023-03-01T08:04:23;38.55;;;25.50;;
40675;SDS011;26359;48.750;9.314;2023-03-01T08:06:52;36.13;;;24.10;;
40675;SDS011;26359;48.750;9.314;2023-03-01T08:09:18;37.25;;;24.83;;
40675;SDS011;26359;48.750;9.314;2023-03-01T08:11:44;35.00;;;24.33;;
40675;SDS011;26359;48.750;9.314;2023-03-01T08:14:09;37.25;;;25.85;;
40675;SDS011;26359;48.750;9.314;2023-03-01T08:16:38;40.47;;;27.10;;
40675;SDS011;26359;48.750;9.314;2023-03-01T08:19:04;37.90;;;27.08;;
40675;SDS011;26359;48.750;9.314;2023-03-01T08:21:31;36.58;;;25.63;;
40675;SDS011;26359;48.750;9.314;2023-03-01T08:23:59;39.40;;;24.38;;
40675;SDS011;26359;48.750;9.314;2023-03-01T08:26:25;33.58;;;22.30;;
40675;SDS011;26359;48.750;9.314;2023-03-01T08:28:51;37.65;;;23.33;;
40675;SDS011;26359;48.750;9.314;2023-03-01T08:31:18;34.88;;;23.00;;
40675;SDS011;26359;48.750;9.314;2023-03-01T08:33:46;38.35;;;23.10;;
40675;SDS011;26359;48.750;9.314;2023-03-01T08:36:20;35.42;;;23.17;;
40675;SDS011;26359;48.750;9.314;2023-03-01T08:38:50;37.53;;;24.40;;
40675;SDS011;26359;48.750;9.314;2023-03-01T08:41:15;38.15;;;23.92;;
40675;SDS011;26359;48.750;9.314;2023-03-01T08:43:41;35.72;;;24.08;;
40675;SDS011;26359;48.750;9.314;2023-03-01T08:46:06;35.67;;;23.05;;
40675;SDS011;26359;48.750;9.314;2023-03-01T08:48:32;33.80;;;22.80;;
40675;SDS011;26359;48.750;9.314;2023-03-01T08:51:06;36.33;;;23.15;;
40675;SDS011;26359;48.750;9.314;2023-03-01T08:53:36;34.95;;;22.58;;
40675;SDS011;26359;48.750;9.314;2023-03-01T08:56:02;34.90;;;23.27;;
40675;SDS011;26359;48.750;9.314;2023-03-01T08:58:28;37.60;;;24.33;;
40675;SDS011;26359;48.750;9.314;2023-03-01T09:00:53;37.28;;;24.92;;
40675;SDS011;26359;48.750;9.314;2023-03-01T09:03:21;36.33;;;24.20;;
40675;SDS011;26359;48.750;9.314;2023-03-01T09:05:47;35.05;;;23.58;;
40675;SDS011;26359;48.750;9.314;2023-03-01T09:08:14;38.90;;;23.38;;
40675;SDS011;26359;48.750;9.314;2023-03-01T09:10:39;33.78;;;24.30;;
40675;SDS011;26359;48.750;9.314;2023-03-01T09:13:05;34.38;;;22.75;;
40675;SDS011;26359;48.750;9.314;2023-03-01T09:15:30;31.58;;;21.95;;
40675;SDS011;26359;48.750;9.314;2023-03-01T09:17:56;33.17;;;21.65;;
40675;SDS011;26359;48.750;9.314;2023-03-01T09:20:21;31.67;;;22.05;;
40675;SDS011;26359;48.750;9.314;2023-03-01T09:22:47;31.70;;;21.27;;
40675;SDS011;26359;48.750;9.314;2023-03-01T09:25:12;34.13;;;22.25;;
40675;SDS011;26359;48.750;9.314;2023-03-01T09:27:38;34.70;;;22.15;;
40675;SDS011;26359;48.750;9.314;2023-03-01T09:30:04;35.30;;;22.40;;
40675;SDS011;26359;48.750;9.314;2023-03-01T09:32:30;32.33;;;22.20;;
40675;SDS011;26359;48.750;9.314;2023-03-01T09:34:56;34.22;;;22.30;;
40675;SDS011;26359;48.750;9.314;2023-03-01T09:37:31;31.75;;;21.70;;
40675;SDS011;26359;48.750;9.314;2023-03-01T09:39:58;36.22;;;22.23;;
40675;SDS011;26359;48.750;9.314;2023-03-01T09:42:23;32.70;;;22.98;;
40675;SDS011;26359;48.750;9.314;2023-03-01T09:44:51;33.40;;;23.30;;
40675;SDS011;26359;48.750;9.314;2023-03-01T09:47:25;32.50;;;21.67;;
40675;SDS011;26359;48.750;9.314;2023-03-01T09:50:01;34.38;;;22.83;;
40675;SDS011;26359;48.750;9.314;2023-03-01T09:52:39;37.25;;;24.08;;
40675;SDS011;26359;48.750;9.314;2023-03-01T09:55:31;31.67;;;21.50;;
40675;SDS011;26359;48.750;9.314;2023-03-01T10:00:49;30.35;;;21.77;;
40675;SDS011;26359;48.750;9.314;2023-03-01T10:06:04;32.65;;;23.08;;
40675;SDS011;26359;48.750;9.314;2023-03-01T10:11:16;33.28;;;22.08;;
40675;SDS011;26359;48.750;9.314;2023-03-01T10:16:15;30.05;;;22.15;;
40675;SDS011;26359;48.750;9.314;2023-03-01T10:18:46;30.77;;;22.77;;
40675;SDS011;26359;48.750;9.314;2023-03-01T10:21:18;30.23;;;22.80;;
40675;SDS011;26359;48.750;9.314;2023-03-01T10:23:45;32.33;;;21.88;;
40675;SDS011;26359;48.750;9.314;2023-03-01T10:31:27;29.75;;;21.15;;
40675;SDS011;26359;48.750;9.314;2023-03-01T10:34:07;30.08;;;22.25;;
40675;SDS011;26359;48.750;9.314;2023-03-01T10:36:38;22.50;;;16.58;;
40675;SDS011;26359;48.750;9.314;2023-03-01T10:39:11;29.63;;;21.70;;
40675;SDS011;26359;48.750;9.314;2023-03-01T10:47:09;30.45;;;21.83;;
40675;SDS011;26359;48.750;9.314;2023-03-01T10:49:38;28.30;;;22.17;;
40675;SDS011;26359;48.750;9.314;2023-03-01T10:52:20;26.65;;;21.25;;
40675;SDS011;26359;48.750;9.314;2023-03-01T10:54:58;29.15;;;21.55;;
40675;SDS011;26359;48.750;9.314;2023-03-01T10:57:36;26.40;;;21.10;;
40675;SDS011;26359;48.750;9.314;2023-03-01T11:00:20;26.98;;;21.30;;
40675;SDS011;26359;48.750;9.314;2023-03-01T11:02:51;27.15;;;21.33;;
40675;SDS011;26359;48.750;9.314;2023-03-01T11:05:27;27.55;;;22.30;;
40675;SDS011;26359;48.750;9.314;2023-03-01T11:07:56;29.45;;;21.85;;
40675;SDS011;26359;48.750;9.314;2023-03-01T11:10:25;29.35;;;23.27;;
40675;SDS011;26359;48.750;9.314;2023-03-01T11:13:05;28.20;;;19.80;;
40675;SDS011;26359;48.750;9.314;2023-03-01T11:15:42;29.13;;;21.00;;
40675;SDS011;26359;48.750;9.314;2023-03-01T11:18:19;26.48;;;21.52;;
40675;SDS011;26359;48.750;9.314;2023-03-01T11:20:46;27.85;;;21.63;;
40675;SDS011;26359;48.750;9.314;2023-03-01T11:23:13;24.48;;;20.63;;
40675;SDS011;26359;48.750;9.314;2023-03-01T11:25:41;27.48;;;21.40;;
40675;SDS011;26359;48.750;9.314;2023-03-01T11:28:17;26.92;;;21.55;;
40675;SDS011;26359;48.750;9.314;2023-03-01T11:30:57;27.48;;;20.75;;
40675;SDS011;26359;48.750;9.314;2023-03-01T11:36:30;26.85;;;20.23;;
40675;SDS011;26359;48.750;9.314;2023-03-01T11:39:12;27.02;;;20.58;;
40675;SDS011;26359;48.750;9.314;2023-03-01T11:41:52;25.67;;;22.00;;
40675;SDS011;26359;48.750;9.314;2023-03-01T11:44:29;26.75;;;20.17;;
40675;SDS011;26359;48.750;9.314;2023-03-01T11:47:08;27.60;;;21.77;;
40675;SDS011;26359;48.750;9.314;2023-03-01T11:52:41;26.35;;;21.15;;
40675;SDS011;26359;48.750;9.314;2023-03-01T12:01:05;25.30;;;21.50;;
40675;SDS011;26359;48.750;9.314;2023-03-01T12:03:47;23.95;;;20.17;;
40675;SDS011;26359;48.750;9.314;2023-03-01T12:06:41;24.73;;;18.48;;
40675;SDS011;26359;48.750;9.314;2023-03-01T12:09:26;24.52;;;18.70;;
40675;SDS011;26359;48.750;9.314;2023-03-01T12:20:47;26.45;;;19.63;;
40675;SDS011;26359;48.750;9.314;2023-03-01T12:29:00;24.40;;;18.90;;
40675;SDS011;26359;48.750;9.314;2023-03-01T12:43:41;24.15;;;19.75;;
40675;SDS011;26359;48.750;9.314;2023-03-01T12:46:15;21.73;;;19.35;;
40675;SDS011;26359;48.750;9.314;2023-03-01T12:51:31;22.75;;;19.65;;
40675;SDS011;26359;48.750;9.314;2023-03-01T12:53:59;23.75;;;19.33;;
40675;SDS011;26359;48.750;9.314;2023-03-01T12:56:31;25.52;;;20.63;;
40675;SDS011;26359;48.750;9.314;2023-03-01T13:01:56;23.42;;;19.48;;
40675;SDS011;26359;48.750;9.314;2023-03-01T13:04:29;23.63;;;19.35;;
40675;SDS011;26359;48.750;9.314;2023-03-01T13:15:24;24.02;;;18.83;;
40675;SDS011;26359;48.750;9.314;2023-03-01T13:17:53;26.83;;;19.48;;
40675;SDS011;26359;48.750;9.314;2023-03-01T13:20:31;21.98;;;17.05;;
40675;SDS011;26359;48.750;9.314;2023-03-01T13:23:00;22.10;;;19.25;;
40675;SDS011;26359;48.750;9.314;2023-03-01T13:25:29;24.15;;;19.67;;
40675;SDS011;26359;48.750;9.314;2023-03-01T13:28:35;23.63;;;18.98;;
40675;SDS011;26359;48.750;9.314;2023-03-01T13:30:59;25.13;;;19.00;;
40675;SDS011;26359;48.750;9.314;2023-03-01T13:35:55;23.70;;;19.25;;
40675;SDS011;26359;48.750;9.314;2023-03-01T13:38:38;20.30;;;18.00;;
40675;SDS011;26359;48.750;9.314;2023-03-01T13:41:07;23.42;;;20.52;;
40675;SDS011;26359;48.750;9.314;2023-03-01T13:43:34;24.08;;;19.95;;
40675;SDS011;26359;48.750;9.314;2023-03-01T13:46:08;22.35;;;19.42;;
40675;SDS011;26359;48.750;9.314;2023-03-01T13:51:21;21.05;;;18.40;;
40675;SDS011;26359;48.750;9.314;2023-03-01T13:53:50;19.58;;;17.48;;
40675;SDS011;26359;48.750;9.314;2023-03-01T13:56:33;21.73;;;17.88;;
40675;SDS011;26359;48.750;9.314;2023-03-01T13:59:18;22.35;;;18.83;;
40675;SDS011;26359;48.750;9.314;2023-03-01T14:01:51;20.75;;;17.63;;
40675;SDS011;26359;48.750;9.314;2023-03-01T14:04:28;23.35;;;19.33;;
40675;SDS011;26359;48.750;9.314;2023-03-01T14:07:30;22.40;;;18.35;;
40675;SDS011;26359;48.750;9.314;2023-03-01T14:09:56;23.08;;;19.08;;
40675;SDS011;26359;48.750;9.314;2023-03-01T14:12:38;20.83;;;18.42;;
40675;SDS011;26359;48.750;9.314;2023-03-01T14:15:29;21.77;;;19.45;;
40675;SDS011;26359;48.750;9.314;2023-03-01T14:18:17;25.30;;;20.48;;
40675;SDS011;26359;48.750;9.314;2023-03-01T14:20:48;27.33;;;22.10;;
40675;SDS011;26359;48.750;9.314;2023-03-01T14:23:17;23.60;;;19.80;;
40675;SDS011;26359;48.750;9.314;2023-03-01T14:25:54;22.77;;;20.27;;
40675;SDS011;26359;48.750;9.314;2023-03-01T14:28:26;25.30;;;21.27;;
40675;SDS011;26359;48.750;9.314;2023-03-01T14:30:55;26.75;;;21.30;;
40675;SDS011;26359;48.750;9.314;2023-03-01T14:38:28;24.95;;;20.63;;
40675;SDS011;26359;48.750;9.314;2023-03-01T14:40:57;26.85;;;21.02;;
40675;SDS011;26359;48.750;9.314;2023-03-01T14:43:26;28.45;;;20.95;;
40675;SDS011;26359;48.750;9.314;2023-03-01T14:45:53;30.25;;;21.67;;
40675;SDS011;26359;48.750;9.314;2023-03-01T14:48:18;24.38;;;19.45;;
40675;SDS011;26359;48.750;9.314;2023-03-01T14:50:44;21.23;;;18.33;;
40675;SDS011;26359;48.750;9.314;2023-03-01T14:55:50;24.13;;;18.60;;
40675;SDS011;26359;48.750;9.314;2023-03-01T14:58:20;24.50;;;18.83;;
40675;SDS011;26359;48.750;9.314;2023-03-01T15:00:52;24.60;;;18.85;;
40675;SDS011;26359;48.750;9.314;2023-03-01T15:03:45;23.58;;;19.83;;
40675;SDS011;26359;48.750;9.314;2023-03-01T15:06:17;22.20;;;18.85;;
40675;SDS011;26359;48.750;9.314;2023-03-01T15:08:46;23.58;;;19.70;;
40675;SDS011;26359;48.750;9.314;2023-03-01T15:13:52;22.20;;;17.63;;
40675;SDS011;26359;48.750;9.314;2023-03-01T15:18:54;22.20;;;18.80;;
40675;SDS011;26359;48.750;9.314;2023-03-01T15:21:22;23.30;;;17.98;;
40675;SDS011;26359;48.750;9.314;2023-03-01T15:23:51;21.83;;;18.67;;
40675;SDS011;26359;48.750;9.314;2023-03-01T15:26:28;22.40;;;19.05;;
40675;SDS011;26359;48.750;9.314;2023-03-01T15:28:56;22.83;;;18.65;;
40675;SDS011;26359;48.750;9.314;2023-03-01T15:31:25;20.80;;;17.85;;
40675;SDS011;26359;48.750;9.314;2023-03-01T15:34:22;25.05;;;20.38;;
40675;SDS011;26359;48.750;9.314;2023-03-01T15:36:50;25.98;;;19.75;;
40675;SDS011;26359;48.750;9.314;2023-03-01T15:39:31;24.58;;;19.58;;
40675;SDS011;26359;48.750;9.314;2023-03-01T15:42:02;23.60;;;17.98;;
40675;SDS011;26359;48.750;9.314;2023-03-01T15:44:31;22.75;;;18.50;;
40675;SDS011;26359;48.750;9.314;2023-03-01T15:46:59;27.73;;;19.48;;
40675;SDS011;26359;48.750;9.314;2023-03-01T15:49:38;27.55;;;20.27;;
40675;SDS011;26359;48.750;9.314;2023-03-01T15:52:15;26.17;;;19.67;;
40675;SDS011;26359;48.750;9.314;2023-03-01T15:54:54;26.45;;;19.10;;
40675;SDS011;26359;48.750;9.314;2023-03-01T15:57:23;25.88;;;18.83;;
40675;SDS011;26359;48.750;9.314;2023-03-01T15:59:49;26.88;;;23.30;;
40675;SDS011;26359;48.750;9.314;2023-03-01T16:02:15;25.88;;;21.20;;
40675;SDS011;26359;48.750;9.314;2023-03-01T16:04:40;26.98;;;20.33;;
40675;SDS011;26359;48.750;9.314;2023-03-01T16:07:06;24.65;;;20.35;;
40675;SDS011;26359;48.750;9.314;2023-03-01T16:09:34;26.48;;;20.38;;
40675;SDS011;26359;48.750;9.314;2023-03-01T16:11:59;28.67;;;21.60;;
40675;SDS011;26359;48.750;9.314;2023-03-01T16:14:26;30.25;;;21.48;;